Airfield :







YOU CAN JOIN US ON...

 
LOGIN :

Register | Disclaimer

   EN    FR    IT 

 









Legend :    VFR   Marginal VFR   IFR   Intensive IFR   Very Intensive IFR
Visi :
Ceiling :
>= 8 km
>= 3000ft
5 to 8 km
1000 to 3000 ft
1500m to 5 km
500 to 1000 ft
800 to 1500m
200 to 500 ft
< 800m
< 200 ft
Symbols :   Thunderstorms  Fog  Heavy snow  Heavy precipitations  Wind > 20 kt






- Airport Elevation : 83 ft


KBHB - Hancock County-Bar Harbor

CURRENT METAR :
  • 241208Z AUTO 00000KT 1/2SM FZFG OVC002 M04/M05 A3003 RMK AO2 FZRANO RVRNO

EXPIRED METARs :
  • 241156Z AUTO 33004KT 1/4SM FZFG OVC002 M04/M05 A3003 RMK AO2 SLP170 T10391050 11039 21050 53002 FZRANO RVRNO
  • 241130Z AUTO 34003KT 1/4SM FZFG OVC002 M04/M05 A3001 RMK AO2 FZRANO RVRNO
  • 241115Z AUTO 35003KT 1/2SM FZFG OVC002 M04/M06 A3002 RMK AO2 FZRANO RVRNO
  • 241056Z AUTO 34004KT 2 1/2SM BR OVC002 M04/M06 A3002 RMK AO2 VIS 2V3 SLP168 T10441056 FZRANO
  • 241028Z AUTO 34003KT 1/4SM FZFG OVC002 M04/M06 A3003 RMK AO2 FZRANO RVRNO
  • 241022Z AUTO 34003KT 3/4SM BR OVC002 M04/M06 A3003 RMK AO2 CIG 001V006 FZRANO RVRNO
  • 241006Z AUTO 33003KT 2 1/2SM BR BKN004 M04/M06 A3002 RMK AO2 VIS 1 1/4V5 CIG 001V007 FZRANO
  • 240956Z AUTO 34003KT 6SM BR SCT004 M04/M06 A3003 RMK AO2 SLP170 T10441056 FZRANO

TAF KBHB
Valid from the 24 at 12:00 until the 25 at 12:00 UTC


241120Z 2412/2512 23005KT 2SM BR BKN002
FM241300 23005KT P6SM FEW090
FM250000 23006KT P6SM FEW100
FM250400 29003KT P6SM SCT100
FM250800 02003KT P6SM BKN090



MET'MAP, your aeronautical weather chart ! - Copyright ORBIFLY December 2007 - Disclaimer

ORBIFLY MET'MAP TEAM :

Programming & Development : Alexandra Zaïnal
Concept & original design : Baudouin d'Aumeries
Assistance for programming : Marc-Olivier Méhu
Technical & hardware support : Manuel Goepfert

Contact : metmap@orbifly.com




SOURCES & CREDITS :

   NOAA